Dade — WDF6950 — position and weather

sailwx.info

Track history (hours):
 
Tides and Currents Weather Stations Pressure Air Temp Water Temp Dewpoint Dewpoint Depression Visibility Wind Speed Wind Dir Waves Ship Positions

Dade

Owner: Kirby Inland Marine LP, Houston, TX. More information available from US FCC via Universal Licensing System and Coast Guard Vessel Documentation Center.

Last reported at 2017-Sep-22 01:59 UTC. Time now 2017-Sep-22 09:58 UTC.
Position N 25°46' W 080°10'.

Length 91 m; draft 3.7 m.

Type: Tug. MMSI: 367479540.

Date/timePositionNaut miles runAvg speedWind from/ knotsBaromVisibWave heightAir tempDewpointWater temp
2017-Sep-22 01:59N 25°46' W 080°10'0 0.0
2017-Sep-22 01:29N 25°46' W 080°10'0 0.0
2017-Sep-22 00:56N 25°46' W 080°10'0 0.0
2017-Sep-22 00:29N 25°46' W 080°10'0 0.0
2017-Sep-21 23:59N 25°46' W 080°10'0 1.0
2017-Sep-21 23:30N 25°46' W 080°10'0 0.1
2017-Sep-21 22:59N 25°46' W 080°10'0 0.0
2017-Sep-21 22:23N 25°46' W 080°10'0 0.0
2017-Sep-21 21:59N 25°46' W 080°10'0 0.0
2017-Sep-21 21:29N 25°46' W 080°10'0 0.0
2017-Sep-21 20:59N 25°46' W 080°10'0 0.0
2017-Sep-21 20:29N 25°46' W 080°10'0 0.0
2017-Sep-21 19:59N 25°46' W 080°10'0 0.0
2017-Sep-21 19:29N 25°46' W 080°10'0 0.1
2017-Sep-21 18:59N 25°46' W 080°10'0 0.8
2017-Sep-21 18:28N 25°46' W 080°10'1 2.2
2017-Sep-21 17:58N 25°47' W 080°11'0 0.0
2017-Sep-21 17:28N 25°47' W 080°11'0 0.0
2017-Sep-21 16:58N 25°47' W 080°11'0 0.0
2017-Sep-21 16:28N 25°47' W 080°11'0 0.0
2017-Sep-21 15:58N 25°47' W 080°11'0 0.0
2017-Sep-21 15:28N 25°47' W 080°11'0 0.0
2017-Sep-21 14:58N 25°47' W 080°11'0 0.0
2017-Sep-21 14:28N 25°47' W 080°11'0 0.0
2017-Sep-21 13:58N 25°47' W 080°11'0 0.0
2017-Sep-21 13:28N 25°47' W 080°11'0 0.0
2017-Sep-21 12:58N 25°47' W 080°11'0 0.0
2017-Sep-21 12:28N 25°47' W 080°11'0 0.0
2017-Sep-21 11:58N 25°47' W 080°11'0 0.0
2017-Sep-21 11:28N 25°47' W 080°11'0 0.0
2017-Sep-21 10:58N 25°47' W 080°11'0 0.0
2017-Sep-21 10:28N 25°47' W 080°11'0 0.0
2017-Sep-21 09:58N 25°47' W 080°11'0 0.0
2017-Sep-21 09:28N 25°47' W 080°11'0 0.0
2017-Sep-21 08:58N 25°47' W 080°11'0 0.0
2017-Sep-21 08:28N 25°47' W 080°11'0 0.0
2017-Sep-21 07:58N 25°47' W 080°11'0 0.0
2017-Sep-21 07:28N 25°47' W 080°11'0 0.0
2017-Sep-21 06:58N 25°47' W 080°11'0 0.0
2017-Sep-21 06:28N 25°47' W 080°11'0 0.0
2017-Sep-21 05:58N 25°47' W 080°11'0 0.0
2017-Sep-21 05:28N 25°47' W 080°11'0 0.0
2017-Sep-21 04:58N 25°47' W 080°11'0 0.0
2017-Sep-21 04:25N 25°47' W 080°11'0 0.0
2017-Sep-21 03:58N 25°47' W 080°11'0 0.0
2017-Sep-21 03:25N 25°47' W 080°11'0 0.0
2017-Sep-21 02:55N 25°47' W 080°11'0 0.0
2017-Sep-21 02:25N 25°47' W 080°11'0 0.0
2017-Sep-21 01:55N 25°47' W 080°11'0 0.0
2017-Sep-21 01:28N 25°47' W 080°11'0 0.0
2017-Sep-21 00:55N 25°47' W 080°11'0 0.0
2017-Sep-21 00:28N 25°47' W 080°11'2 4.4
2017-Sep-20 23:56N 25°46' W 080°08'1 2.9
2017-Sep-20 23:28N 25°46' W 080°10'0 0.5
2017-Sep-20 23:00N 25°46' W 080°10'1 1.7
2017-Sep-20 22:30N 25°46' W 080°09'2 3.2
2017-Sep-20 21:59N 25°47' W 080°11'0 0.0
2017-Sep-20 21:29N 25°47' W 080°11'0 0.0
2017-Sep-20 20:59N 25°47' W 080°11'0 0.0
2017-Sep-20 20:29N 25°47' W 080°11'0 0.0
2017-Sep-20 19:59N 25°47' W 080°11'0 0.0
2017-Sep-20 19:29N 25°47' W 080°11'0 0.0
2017-Sep-20 18:59N 25°47' W 080°11'0 0.0
2017-Sep-20 18:30N 25°47' W 080°11'1 2.6
2017-Sep-20 18:00N 25°46' W 080°09'0 0.8
2017-Sep-20 17:26N 25°46' W 080°10'0 0.0
2017-Sep-20 16:56N 25°46' W 080°10'0 0.0
2017-Sep-20 16:29N 25°46' W 080°10'0 0.0
2017-Sep-20 15:56N 25°46' W 080°10'0 0.0
2017-Sep-20 15:29N 25°46' W 080°10'1 1.8
2017-Sep-20 15:00N 25°46' W 080°09'2 2.1
2017-Sep-20 13:59N 25°47' W 080°11'0 0.0
2017-Sep-20 13:29N 25°47' W 080°11'0 0.0
2017-Sep-20 12:59N 25°47' W 080°11'1 2.8
2017-Sep-20 12:30N 25°46' W 080°10'0 0.1
2017-Sep-20 11:59N 25°46' W 080°10'0 0.4
2017-Sep-20 11:29N 25°46' W 080°10'0 0.0
2017-Sep-20 10:59N 25°46' W 080°10'0 0.0
2017-Sep-20 10:29N 25°46' W 080°10'0 0.0
2017-Sep-20 09:59N 25°46' W 080°10'0 0.0
2017-Sep-20 09:29N 25°46' W 080°10'0 0.0
2017-Sep-20 08:59N 25°46' W 080°10'0 0.0
2017-Sep-20 08:29N 25°46' W 080°10'0 0.0
2017-Sep-20 07:59N 25°46' W 080°10'0 0.0
2017-Sep-20 07:29N 25°46' W 080°10'0 0.0
2017-Sep-20 06:59N 25°46' W 080°10'0 0.0
2017-Sep-20 06:29N 25°46' W 080°10'0 0.0
2017-Sep-20 05:59N 25°46' W 080°10'0 0.0
2017-Sep-20 05:29N 25°46' W 080°10'0 0.0
2017-Sep-20 04:59N 25°46' W 080°10'0 0.0
2017-Sep-20 04:29N 25°46' W 080°10'0 0.0
2017-Sep-20 03:59N 25°46' W 080°10'0 0.0
2017-Sep-20 03:29N 25°46' W 080°10'0 0.0
2017-Sep-20 02:59N 25°46' W 080°10'0 0.0
2017-Sep-20 02:26N 25°46' W 080°10'0 0.0
2017-Sep-20 01:59N 25°46' W 080°10'0 0.0
2017-Sep-20 01:29N 25°46' W 080°10'0 0.0
2017-Sep-20 00:56N 25°46' W 080°10'0 0.0
2017-Sep-20 00:29N 25°46' W 080°10'0 0.0
2017-Sep-19 23:59N 25°46' W 080°10'0 0.0
2017-Sep-19 23:26N 25°46' W 080°10'0 0.0
2017-Sep-19 22:56N 25°46' W 080°10'0 0.0
2017-Sep-19 22:29N 25°46' W 080°10'0 0.0
2017-Sep-19 21:59N 25°46' W 080°10'0 0.0
2017-Sep-19 21:29N 25°46' W 080°10'0 0.0
2017-Sep-19 20:59N 25°46' W 080°10'0 0.0
2017-Sep-19 20:29N 25°46' W 080°10'1 2.2
2017-Sep-19 19:54N 25°46' W 080°08'2 5.8
2017-Sep-19 19:30N 25°47' W 080°11'0 0.0
2017-Sep-19 19:00N 25°47' W 080°11'0 0.0
2017-Sep-19 18:27N 25°47' W 080°11'0 0.0
2017-Sep-19 18:00N 25°47' W 080°11'0 0.0
2017-Sep-19 17:27N 25°47' W 080°11'0 0.0
2017-Sep-19 16:57N 25°47' W 080°11'0 0.0
2017-Sep-19 16:30N 25°47' W 080°11'0 0.0
2017-Sep-19 16:00N 25°47' W 080°11'0 0.0
2017-Sep-19 15:30N 25°47' W 080°11'0 0.0
2017-Sep-19 15:00N 25°47' W 080°11'0 0.0
2017-Sep-19 14:30N 25°47' W 080°11'0 0.0
2017-Sep-19 14:00N 25°47' W 080°11'0 0.9
2017-Sep-19 13:31N 25°47' W 080°10'2 3.5
2017-Sep-19 13:00N 25°46' W 080°09'0 0.0
2017-Sep-19 12:30N 25°46' W 080°09'0 0.0
2017-Sep-19 11:57N 25°46' W 080°09'0 0.0
2017-Sep-19 11:30N 25°46' W 080°09'0 0.0
2017-Sep-19 11:00N 25°46' W 080°09'0 0.0
2017-Sep-19 10:30N 25°46' W 080°09'0 0.0
2017-Sep-19 10:00N 25°46' W 080°09'0 0.0
2017-Sep-19 09:30N 25°46' W 080°09'0 0.0
2017-Sep-19 09:00N 25°46' W 080°09'0 0.0
2017-Sep-19 08:27N 25°46' W 080°09'0 0.0
2017-Sep-19 07:56N 25°46' W 080°09'0 0.0
2017-Sep-19 07:26N 25°46' W 080°09'0 0.0
2017-Sep-19 06:56N 25°46' W 080°09'0 0.0
2017-Sep-19 06:29N 25°46' W 080°09'0 0.0
2017-Sep-19 05:56N 25°46' W 080°09'0 0.0
2017-Sep-19 05:26N 25°46' W 080°09'0 0.0
2017-Sep-19 04:59N 25°46' W 080°09'0 0.0
2017-Sep-19 04:26N 25°46' W 080°09'0 0.0
2017-Sep-19 03:53N 25°46' W 080°09'0 0.0
2017-Sep-19 03:26N 25°46' W 080°09'0 0.0
2017-Sep-19 02:53N 25°46' W 080°09'0 0.0
2017-Sep-19 02:23N 25°46' W 080°09'0 0.0
2017-Sep-19 01:59N 25°46' W 080°09'0 0.0
2017-Sep-19 01:29N 25°46' W 080°09'0 0.0
2017-Sep-19 00:59N 25°46' W 080°09'0 0.0
2017-Sep-19 00:29N 25°46' W 080°09'0 0.0
2017-Sep-18 23:59N 25°46' W 080°09'0 0.0
2017-Sep-18 23:26N 25°46' W 080°09'0 0.0
2017-Sep-18 22:59N 25°46' W 080°09'0 0.0
2017-Sep-18 22:26N 25°46' W 080°09'0 0.0
2017-Sep-18 21:59N 25°46' W 080°09'0 0.0
2017-Sep-18 21:23N 25°46' W 080°09'0 0.0
2017-Sep-18 20:59N 25°46' W 080°09'0 0.0
2017-Sep-18 20:29N 25°46' W 080°09'0 0.3
2017-Sep-18 19:58N 25°46' W 080°08'1 2.1
2017-Sep-18 19:22N 25°46' W 080°10'1 2.9
2017-Sep-18 18:58N 25°46' W 080°09'0 0.0
2017-Sep-18 18:28N 25°46' W 080°09'0 0.0
2017-Sep-18 17:58N 25°46' W 080°09'1 2.3
2017-Sep-18 17:27N 25°46' W 080°10'0 0.0
2017-Sep-18 16:56N 25°46' W 080°10'0 0.0
2017-Sep-18 16:23N 25°46' W 080°10'0 0.0
2017-Sep-18 15:56N 25°46' W 080°10'0 0.0
2017-Sep-18 15:29N 25°46' W 080°10'0 0.0
2017-Sep-18 14:59N 25°46' W 080°10'0 0.0
2017-Sep-18 14:29N 25°46' W 080°10'0 0.0
2017-Sep-18 13:59N 25°46' W 080°10'0 0.0
2017-Sep-18 13:29N 25°46' W 080°10'0 0.0
2017-Sep-18 12:59N 25°46' W 080°10'0 0.0
2017-Sep-18 12:29N 25°46' W 080°10'0 0.0
2017-Sep-18 11:59N 25°46' W 080°10'0 0.0
2017-Sep-18 11:29N 25°46' W 080°10'0 0.0
2017-Sep-18 10:59N 25°46' W 080°10'0 0.0
2017-Sep-18 10:29N 25°46' W 080°10'0 0.0
2017-Sep-18 09:59N 25°46' W 080°10'0 0.0
2017-Sep-18 09:29N 25°46' W 080°10'0 0.0
2017-Sep-18 08:59N 25°46' W 080°10'0 0.0
2017-Sep-18 08:29N 25°46' W 080°10'0 0.0
2017-Sep-18 07:59N 25°46' W 080°10'0 0.0
2017-Sep-18 07:29N 25°46' W 080°10'0 0.0
2017-Sep-18 06:59N 25°46' W 080°10'0 0.0
2017-Sep-18 06:29N 25°46' W 080°10'0 0.0
2017-Sep-18 05:59N 25°46' W 080°10'0 0.0
2017-Sep-18 05:29N 25°46' W 080°10'0 0.0
2017-Sep-18 04:59N 25°46' W 080°10'0 0.0
2017-Sep-18 04:29N 25°46' W 080°10'0 0.0
2017-Sep-18 03:59N 25°46' W 080°10'0 0.0
2017-Sep-18 03:29N 25°46' W 080°10'0 0.0
2017-Sep-18 02:59N 25°46' W 080°10'0 0.0
2017-Sep-18 02:29N 25°46' W 080°10'0 0.0
2017-Sep-18 01:59N 25°46' W 080°10'0 0.0
2017-Sep-18 01:29N 25°46' W 080°10'0 0.0
2017-Sep-18 00:59N 25°46' W 080°10'0 0.0
2017-Sep-18 00:29N 25°46' W 080°10'0 0.0
2017-Sep-17 23:59N 25°46' W 080°10'0 0.0
2017-Sep-17 23:29N 25°46' W 080°10'0 0.0
2017-Sep-17 22:56N 25°46' W 080°10'0 0.0
2017-Sep-17 22:29N 25°46' W 080°10'0 0.0
2017-Sep-17 21:56N 25°46' W 080°10'0 0.0
2017-Sep-17 21:29N 25°46' W 080°10'0 0.0
2017-Sep-17 20:56N 25°46' W 080°10'0 0.0
2017-Sep-17 20:29N 25°46' W 080°10'0 0.0
2017-Sep-17 19:58N 25°46' W 080°10'0 0.0
2017-Sep-17 19:28N 25°46' W 080°10'0 0.0
2017-Sep-17 18:58N 25°46' W 080°10'0 0.0
2017-Sep-17 18:28N 25°46' W 080°10'0 0.0
2017-Sep-17 17:58N 25°46' W 080°10'0 0.0
2017-Sep-17 17:28N 25°46' W 080°10'0 0.0
2017-Sep-17 17:00N 25°46' W 080°10'0 0.0
2017-Sep-17 16:30N 25°46' W 080°10'0 0.8
2017-Sep-17 16:00N 25°47' W 080°10'0 0.0
2017-Sep-17 15:30N 25°47' W 080°10'0 0.0
2017-Sep-17 15:00N 25°47' W 080°10'0 0.0
2017-Sep-17 14:30N 25°47' W 080°10'0 0.0
2017-Sep-17 14:00N 25°47' W 080°10'0 0.0
2017-Sep-17 13:30N 25°47' W 080°10'0 0.0
2017-Sep-17 13:00N 25°47' W 080°10'0 0.0
2017-Sep-17 12:30N 25°47' W 080°10'0 0.0
2017-Sep-17 12:00N 25°47' W 080°10'0 0.9
2017-Sep-17 11:30N 25°46' W 080°10'0 0.0
2017-Sep-17 11:00N 25°46' W 080°10'0 0.0
2017-Sep-17 10:30N 25°46' W 080°10'0 0.0
2017-Sep-17 10:00N 25°46' W 080°10'0 0.0
2017-Sep-17 09:30N 25°46' W 080°10'0 0.0
2017-Sep-17 09:00N 25°46' W 080°10'0 0.0
2017-Sep-17 08:30N 25°46' W 080°10'0 0.0
2017-Sep-17 08:00N 25°46' W 080°10'0 0.0
2017-Sep-17 07:30N 25°46' W 080°10'0 0.0
2017-Sep-17 07:00N 25°46' W 080°10'0 0.0
2017-Sep-17 06:30N 25°46' W 080°10'0 0.0
2017-Sep-17 06:00N 25°46' W 080°10'0 0.0
2017-Sep-17 05:30N 25°46' W 080°10'0 0.0
2017-Sep-17 05:00N 25°46' W 080°10'0 0.0
2017-Sep-17 04:30N 25°46' W 080°10'0 0.0
2017-Sep-17 04:00N 25°46' W 080°10'0 0.0
2017-Sep-17 03:30N 25°46' W 080°10'0 0.0
2017-Sep-17 03:00N 25°46' W 080°10'0 0.0
2017-Sep-17 02:30N 25°46' W 080°10'0 0.0
2017-Sep-17 02:00N 25°46' W 080°10'0 0.0
2017-Sep-17 01:30N 25°46' W 080°10'0 0.0
2017-Sep-17 01:00N 25°46' W 080°10'0 0.0
2017-Sep-17 00:30N 25°46' W 080°10'0 0.0
2017-Sep-17 00:00N 25°46' W 080°10'0 0.0
2017-Sep-16 23:30N 25°46' W 080°10'0 0.0
2017-Sep-16 23:00N 25°46' W 080°10'0 0.0
2017-Sep-16 22:30N 25°46' W 080°10'0 0.0
2017-Sep-16 22:00N 25°46' W 080°10'0 0.0
2017-Sep-16 21:30N 25°46' W 080°10'0 0.0
2017-Sep-16 21:00N 25°46' W 080°10'0 0.0
2017-Sep-16 20:30N 25°46' W 080°10'0 0.0
2017-Sep-16 20:00N 25°46' W 080°10'0 0.0
2017-Sep-16 19:30N 25°46' W 080°10'0 0.0
2017-Sep-16 19:00N 25°46' W 080°10'0 0.0
2017-Sep-16 18:30N 25°46' W 080°10'0 0.0
2017-Sep-16 18:00N 25°46' W 080°10'0 0.9
2017-Sep-16 17:30N 25°47' W 080°10'0 0.0
2017-Sep-16 17:00N 25°47' W 080°10'0 0.0
2017-Sep-16 16:30N 25°47' W 080°10'0 0.5
2017-Sep-16 16:00N 25°47' W 080°10'0 0.6
2017-Sep-16 15:30N 25°47' W 080°11'0 1.0
2017-Sep-16 15:01N 25°47' W 080°10'0 0.1
2017-Sep-16 14:30N 25°47' W 080°10'0 0.0
2017-Sep-16 14:00N 25°47' W 080°10'0 0.0
2017-Sep-16 13:30N 25°47' W 080°10'0 0.0
2017-Sep-16 13:00N 25°47' W 080°10'0 0.0
2017-Sep-16 12:30N 25°47' W 080°10'0 0.0
2017-Sep-16 12:00N 25°47' W 080°10'0 0.1
2017-Sep-16 11:30N 25°47' W 080°10'1 1.0
2017-Sep-16 11:00N 25°47' W 080°11'1 2.1
2017-Sep-16 10:30N 25°46' W 080°10'0 0.0
2017-Sep-16 09:58N 25°46' W 080°10'0 0.0
2017-Sep-16 09:28N 25°46' W 080°10'0 0.0
2017-Sep-16 08:58N 25°46' W 080°10'0 0.0
2017-Sep-16 08:28N 25°46' W 080°10'0 0.0
2017-Sep-16 07:58N 25°46' W 080°10'0 0.0
2017-Sep-16 07:28N 25°46' W 080°10'0 0.0
2017-Sep-16 06:58N 25°46' W 080°10'0 0.0
2017-Sep-16 06:28N 25°46' W 080°10'0 0.0
2017-Sep-16 05:58N 25°46' W 080°10'0 0.0
2017-Sep-16 05:28N 25°46' W 080°10'0 0.0
2017-Sep-16 04:58N 25°46' W 080°10'0 0.0
2017-Sep-16 04:28N 25°46' W 080°10'0 0.0
2017-Sep-16 03:55N 25°46' W 080°10'0 0.0
2017-Sep-16 03:28N 25°46' W 080°10'0 0.0
2017-Sep-16 02:58N 25°46' W 080°10'0 0.0
2017-Sep-16 02:28N 25°46' W 080°10'0 0.0
2017-Sep-16 01:58N 25°46' W 080°10'0 0.0
2017-Sep-16 01:28N 25°46' W 080°10'0 0.0
2017-Sep-16 00:58N 25°46' W 080°10'0 0.0
2017-Sep-16 00:28N 25°46' W 080°10'0 0.0
2017-Sep-15 23:58N 25°46' W 080°10'0 0.0
2017-Sep-15 23:28N 25°46' W 080°10'0 0.0
2017-Sep-15 22:58N 25°46' W 080°10'0 0.0
2017-Sep-15 22:28N 25°46' W 080°10'0 0.1
2017-Sep-15 21:58N 25°46' W 080°10'0 0.1
2017-Sep-15 21:30N 25°46' W 080°10'0 0.2
2017-Sep-15 21:00N 25°46' W 080°10'0 0.0
2017-Sep-15 20:30N 25°46' W 080°10'0 0.0
2017-Sep-15 20:00N 25°46' W 080°10'1 2.0
2017-Sep-15 19:30N 25°46' W 080°09'1 1.2
2017-Sep-15 19:00N 25°46' W 080°10'1 1.3
2017-Sep-15 18:30N 25°47' W 080°10'0 0.0
2017-Sep-15 18:00N 25°47' W 080°10'0 0.0
2017-Sep-15 17:30N 25°47' W 080°10'0 0.3
2017-Sep-15 17:00N 25°46' W 080°10'1 2.6
2017-Sep-15 16:30N 25°46' W 080°08'1 2.3
2017-Sep-15 15:57N 25°46' W 080°10'0 0.0
2017-Sep-15 15:30N 25°46' W 080°10'0 0.0
2017-Sep-15 15:00N 25°46' W 080°10'0 0.0
2017-Sep-15 14:27N 25°46' W 080°10'0 0.4
2017-Sep-15 13:59N 25°47' W 080°10'0 0.0
2017-Sep-15 13:29N 25°47' W 080°10'0 0.0
2017-Sep-15 12:59N 25°47' W 080°10'0 0.0
2017-Sep-15 12:29N 25°47' W 080°10'0 0.0
2017-Sep-15 11:59N 25°47' W 080°10'0 0.2
2017-Sep-15 11:25N 25°46' W 080°10'0 0.0
2017-Sep-15 10:58N 25°46' W 080°10'0 0.0
2017-Sep-15 10:28N 25°46' W 080°10'0 0.0
2017-Sep-15 09:58N 25°46' W 080°10'0 0.0
2017-Sep-15 09:28N 25°46' W 080°10'0 0.0
2017-Sep-15 08:58N 25°46' W 080°10'0 0.0
2017-Sep-15 08:28N 25°46' W 080°10'0 0.0
2017-Sep-15 07:58N 25°46' W 080°10'0 0.0
2017-Sep-15 07:28N 25°46' W 080°10'0 0.0
2017-Sep-15 06:58N 25°46' W 080°10'0 0.0
2017-Sep-15 06:28N 25°46' W 080°10'0 0.0
2017-Sep-15 05:58N 25°46' W 080°10'0 0.0
2017-Sep-15 05:28N 25°46' W 080°10'0 0.0
2017-Sep-15 04:58N 25°46' W 080°10'0 0.0
2017-Sep-15 04:28N 25°46' W 080°10'0 0.0
2017-Sep-15 03:58N 25°46' W 080°10'0 0.0
2017-Sep-15 03:28N 25°46' W 080°10'0 0.0
2017-Sep-15 02:58N 25°46' W 080°10'0 0.0
2017-Sep-15 02:28N 25°46' W 080°10'0 0.0
2017-Sep-15 01:58N 25°46' W 080°10'0 0.0
2017-Sep-15 01:28N 25°46' W 080°10'0 0.0
2017-Sep-15 00:58N 25°46' W 080°10'0 0.0
2017-Sep-15 00:25N 25°46' W 080°10'0 0.0
2017-Sep-14 23:58N 25°46' W 080°10'0 0.0
2017-Sep-14 23:28N 25°46' W 080°10'1 2.7
2017-Sep-14 23:00N 25°46' W 080°08'1 2.7
2017-Sep-14 22:31N 25°46' W 080°10'0 0.0
2017-Sep-14 22:01N 25°46' W 080°10'1 1.8
2017-Sep-14 21:31N 25°46' W 080°09'1 2.7
2017-Sep-14 21:01N 25°46' W 080°10'0 0.7
2017-Sep-14 20:30N 25°46' W 080°11'1 1.7
2017-Sep-14 20:00N 25°46' W 080°10'0 0.0
2017-Sep-14 19:30N 25°46' W 080°10'0 0.0
2017-Sep-14 19:00N 25°46' W 080°10'0 0.0
2017-Sep-14 18:30N 25°46' W 080°10'0 0.0
2017-Sep-14 18:00N 25°46' W 080°10'0 0.0
2017-Sep-14 17:24N 25°46' W 080°10'0 0.0
2017-Sep-14 17:00N 25°46' W 080°10'0 0.0
2017-Sep-14 16:30N 25°46' W 080°10'0 0.0
2017-Sep-14 16:00N 25°46' W 080°10'0 0.0
2017-Sep-14 15:30N 25°46' W 080°10'0 0.7
2017-Sep-14 15:01N 25°47' W 080°10'0 0.8
2017-Sep-14 14:26N 25°47' W 080°10'0 0.0
2017-Sep-14 13:59N 25°47' W 080°10'0 0.0
2017-Sep-14 13:29N 25°47' W 080°10'0 0.0
2017-Sep-14 12:59N 25°47' W 080°10'0 0.0
2017-Sep-14 12:29N 25°47' W 080°10'0 0.0
2017-Sep-14 11:59N 25°47' W 080°10'0 0.0
2017-Sep-14 11:29N 25°47' W 080°10'0 0.0
2017-Sep-14 10:59N 25°47' W 080°10'1 1.5
2017-Sep-14 10:30N 25°46' W 080°10'0 0.0
2017-Sep-14 10:00N 25°46' W 080°10'0 0.0
2017-Sep-14 09:30N 25°46' W 080°10'0 0.0
2017-Sep-14 09:00N 25°46' W 080°10'0 0.0
2017-Sep-14 08:27N 25°46' W 080°10'0 0.0
2017-Sep-14 07:54N 25°46' W 080°10'0 0.0
2017-Sep-14 07:27N 25°46' W 080°10'0 0.0
2017-Sep-14 07:00N 25°46' W 080°10'0 0.0
2017-Sep-14 06:30N 25°46' W 080°10'0 0.0
2017-Sep-14 06:00N 25°46' W 080°10'0 0.0
2017-Sep-14 05:30N 25°46' W 080°10'0 0.0
2017-Sep-14 05:00N 25°46' W 080°10'0 0.0
2017-Sep-14 04:30N 25°46' W 080°10'0 0.0
2017-Sep-14 03:57N 25°46' W 080°10'1 1.2
2017-Sep-14 03:30N 25°46' W 080°10'1 1.4
2017-Sep-14 03:00N 25°46' W 080°10'0 0.0
2017-Sep-14 02:30N 25°46' W 080°10'0 0.0
2017-Sep-14 02:00N 25°46' W 080°10'0 0.0
2017-Sep-14 01:30N 25°46' W 080°10'0 0.0
2017-Sep-14 01:00N 25°46' W 080°10'0 0.0
2017-Sep-14 00:30N 25°46' W 080°10'0 0.0
2017-Sep-14 00:00N 25°46' W 080°10'0 0.0
2017-Sep-13 23:30N 25°46' W 080°10'0 0.0
2017-Sep-13 23:00N 25°46' W 080°10'0 0.0
2017-Sep-13 22:30N 25°46' W 080°10'0 0.8
2017-Sep-13 21:58N 25°46' W 080°10'0 0.0
2017-Sep-13 21:28N 25°46' W 080°10'0 0.1
2017-Sep-13 20:58N 25°46' W 080°10'0 0.9
2017-Sep-13 20:29N 25°46' W 080°10'0 0.0
2017-Sep-13 19:59N 25°46' W 080°10'0 0.0
2017-Sep-13 19:29N 25°46' W 080°10'0 0.0
2017-Sep-13 18:53N 25°46' W 080°10'0 0.0
2017-Sep-13 18:29N 25°46' W 080°10'0 0.0
2017-Sep-13 17:59N 25°46' W 080°10'0 0.0
2017-Sep-13 17:29N 25°46' W 080°10'0 0.0
2017-Sep-13 16:59N 25°46' W 080°10'0 0.0
2017-Sep-13 16:29N 25°46' W 080°10'0 0.8
2017-Sep-13 15:57N 25°46' W 080°10'0 0.0
2017-Sep-13 15:30N 25°46' W 080°10'0 0.0
2017-Sep-13 15:00N 25°46' W 080°10'0 0.0
2017-Sep-13 14:30N 25°46' W 080°10'0 0.0
2017-Sep-13 14:00N 25°46' W 080°10'1 1.7
2017-Sep-13 13:29N 25°46' W 080°09'2 3.6
2017-Sep-13 13:00N 25°47' W 080°11'0 0.0
2017-Sep-13 12:30N 25°47' W 080°11'0 0.0
2017-Sep-13 12:00N 25°47' W 080°11'0 0.2
2017-Sep-13 11:30N 25°47' W 080°11'0 0.0
2017-Sep-13 11:00N 25°47' W 080°11'0 0.0
2017-Sep-13 10:29N 25°47' W 080°11'0 0.0
2017-Sep-13 09:59N 25°47' W 080°11'0 0.0
2017-Sep-13 09:29N 25°47' W 080°11'0 0.0
2017-Sep-13 08:59N 25°47' W 080°11'0 0.0
2017-Sep-13 08:29N 25°47' W 080°11'0 0.0
2017-Sep-13 07:59N 25°47' W 080°11'0 0.0
2017-Sep-13 07:29N 25°47' W 080°11'0 0.0
2017-Sep-13 06:59N 25°47' W 080°11'0 0.0
2017-Sep-13 06:29N 25°47' W 080°11'1 1.3
2017-Sep-13 05:58N 25°47' W 080°10'0 0.0
2017-Sep-13 05:28N 25°47' W 080°10'0 0.0
2017-Sep-13 04:58N 25°47' W 080°10'0 0.0
2017-Sep-13 04:28N 25°47' W 080°10'0 0.0
2017-Sep-13 03:55N 25°47' W 080°10'0 0.0
2017-Sep-13 03:28N 25°47' W 080°10'0 0.0
2017-Sep-13 02:58N 25°47' W 080°10'0 0.0
2017-Sep-13 02:28N 25°47' W 080°10'0 0.0
2017-Sep-13 01:58N 25°47' W 080°10'0 0.0
2017-Sep-13 01:28N 25°47' W 080°10'0 0.1
2017-Sep-13 00:54N 25°47' W 080°10'1 3.2
2017-Sep-13 00:26N 25°46' W 080°08'0 0.0
2017-Sep-12 23:59N 25°46' W 080°08'0 0.2
2017-Sep-12 23:27N 25°46' W 080°08'3 5.6
2017-Sep-12 22:58N 25°46' W 080°05'0 0.2
2017-Sep-12 22:30N 25°46' W 080°05'0 0.8
2017-Sep-12 21:57N 25°46' W 080°06'3 5.2
2017-Sep-12 21:28N 25°46' W 080°09'0 0.0
2017-Sep-12 20:58N 25°46' W 080°09'0 0.0
2017-Sep-12 20:28N 25°46' W 080°09'0 0.0
2017-Sep-12 19:58N 25°46' W 080°09'0 0.0
2017-Sep-12 19:28N 25°46' W 080°09'1 1.2
2017-Sep-12 19:00N 25°46' W 080°09'1 1.4
2017-Sep-12 18:29N 25°46' W 080°10'0 0.3
2017-Sep-12 18:00N 25°47' W 080°10'1 2.2
2017-Sep-12 17:30N 25°46' W 080°09'1 2.9
2017-Sep-12 17:00N 25°47' W 080°10'0 0.0
2017-Sep-12 16:28N 25°47' W 080°10'0 0.7
2017-Sep-12 16:00N 25°47' W 080°11'0 0.0
2017-Sep-12 15:30N 25°47' W 080°11'0 0.0
2017-Sep-12 15:00N 25°47' W 080°11'0 0.0
2017-Sep-12 14:30N 25°47' W 080°11'0 0.0
2017-Sep-12 13:57N 25°47' W 080°11'0 0.0
2017-Sep-12 13:30N 25°47' W 080°11'0 0.0
2017-Sep-12 12:57N 25°47' W 080°11'0 0.0
2017-Sep-12 12:30N 25°47' W 080°11'0 0.0
2017-Sep-12 11:59N 25°47' W 080°11'0 0.0
2017-Sep-12 11:29N 25°47' W 080°11'0 0.0
2017-Sep-12 11:00N 25°47' W 080°11'0 0.7
2017-Sep-12 10:29N 25°47' W 080°10'0 0.0
2017-Sep-12 09:59N 25°47' W 080°10'0 0.0
2017-Sep-12 09:29N 25°47' W 080°10'0 0.0
2017-Sep-12 08:59N 25°47' W 080°10'0 0.0
2017-Sep-12 08:29N 25°47' W 080°10'0 0.0
2017-Sep-12 07:56N 25°47' W 080°10'0 0.0
2017-Sep-12 07:29N 25°47' W 080°10'0 0.0
2017-Sep-12 06:59N 25°47' W 080°10'0 0.0
2017-Sep-12 06:29N 25°47' W 080°10'0 0.0
2017-Sep-12 05:53N 25°47' W 080°10'0 0.0
2017-Sep-12 05:29N 25°47' W 080°10'0 0.0
2017-Sep-12 04:59N 25°47' W 080°10'0 0.0
2017-Sep-12 04:26N 25°47' W 080°10'0 0.0
2017-Sep-12 03:56N 25°47' W 080°10'0 0.0
2017-Sep-12 03:29N 25°47' W 080°10'0 0.0
2017-Sep-12 02:59N 25°47' W 080°10'0 0.0
2017-Sep-12 02:29N 25°47' W 080°10'  
Track history (hours):
 
Tides and Currents Weather Stations Pressure Air Temp Water Temp Dewpoint Dewpoint Depression Visibility Wind Speed Wind Dir Waves Ship Positions

Dade

Owner: Kirby Inland Marine LP, Houston, TX. More information available from US FCC via Universal Licensing System and Coast Guard Vessel Documentation Center.

Last reported at 2017-Sep-22 01:59 UTC. Time now 2017-Sep-22 09:58 UTC.
Position N 25°46' W 080°10'.

Length 91 m; draft 3.7 m.

Type: Tug. MMSI: 367479540.

Date/timePositionNaut miles runAvg speedWind from/ knotsBaromVisibWave heightAir tempDewpointWater temp
2017-Sep-22 01:59N 25°46' W 080°10'0 0.0
2017-Sep-22 01:29N 25°46' W 080°10'0 0.0
2017-Sep-22 00:56N 25°46' W 080°10'0 0.0
2017-Sep-22 00:29N 25°46' W 080°10'0 0.0
2017-Sep-21 23:59N 25°46' W 080°10'0 1.0
2017-Sep-21 23:30N 25°46' W 080°10'0 0.1
2017-Sep-21 22:59N 25°46' W 080°10'0 0.0
2017-Sep-21 22:23N 25°46' W 080°10'0 0.0
2017-Sep-21 21:59N 25°46' W 080°10'0 0.0
2017-Sep-21 21:29N 25°46' W 080°10'0 0.0
2017-Sep-21 20:59N 25°46' W 080°10'0 0.0
2017-Sep-21 20:29N 25°46' W 080°10'0 0.0
2017-Sep-21 19:59N 25°46' W 080°10'0 0.0
2017-Sep-21 19:29N 25°46' W 080°10'0 0.1
2017-Sep-21 18:59N 25°46' W 080°10'0 0.8
2017-Sep-21 18:28N 25°46' W 080°10'1 2.2
2017-Sep-21 17:58N 25°47' W 080°11'0 0.0
2017-Sep-21 17:28N 25°47' W 080°11'0 0.0
2017-Sep-21 16:58N 25°47' W 080°11'0 0.0
2017-Sep-21 16:28N 25°47' W 080°11'0 0.0
2017-Sep-21 15:58N 25°47' W 080°11'0 0.0
2017-Sep-21 15:28N 25°47' W 080°11'0 0.0
2017-Sep-21 14:58N 25°47' W 080°11'0 0.0
2017-Sep-21 14:28N 25°47' W 080°11'0 0.0
2017-Sep-21 13:58N 25°47' W 080°11'0 0.0
2017-Sep-21 13:28N 25°47' W 080°11'0 0.0
2017-Sep-21 12:58N 25°47' W 080°11'0 0.0
2017-Sep-21 12:28N 25°47' W 080°11'0 0.0
2017-Sep-21 11:58N 25°47' W 080°11'0 0.0
2017-Sep-21 11:28N 25°47' W 080°11'0 0.0
2017-Sep-21 10:58N 25°47' W 080°11'0 0.0
2017-Sep-21 10:28N 25°47' W 080°11'0 0.0
2017-Sep-21 09:58N 25°47' W 080°11'0 0.0
2017-Sep-21 09:28N 25°47' W 080°11'0 0.0
2017-Sep-21 08:58N 25°47' W 080°11'0 0.0
2017-Sep-21 08:28N 25°47' W 080°11'0 0.0
2017-Sep-21 07:58N 25°47' W 080°11'0 0.0
2017-Sep-21 07:28N 25°47' W 080°11'0 0.0
2017-Sep-21 06:58N 25°47' W 080°11'0 0.0
2017-Sep-21 06:28N 25°47' W 080°11'0 0.0
2017-Sep-21 05:58N 25°47' W 080°11'0 0.0
2017-Sep-21 05:28N 25°47' W 080°11'0 0.0
2017-Sep-21 04:58N 25°47' W 080°11'0 0.0
2017-Sep-21 04:25N 25°47' W 080°11'0 0.0
2017-Sep-21 03:58N 25°47' W 080°11'0 0.0
2017-Sep-21 03:25N 25°47' W 080°11'0 0.0
2017-Sep-21 02:55N 25°47' W 080°11'0 0.0
2017-Sep-21 02:25N 25°47' W 080°11'0 0.0
2017-Sep-21 01:55N 25°47' W 080°11'0 0.0
2017-Sep-21 01:28N 25°47' W 080°11'0 0.0
2017-Sep-21 00:55N 25°47' W 080°11'0 0.0
2017-Sep-21 00:28N 25°47' W 080°11'2 4.4
2017-Sep-20 23:56N 25°46' W 080°08'1 2.9
2017-Sep-20 23:28N 25°46' W 080°10'0 0.5
2017-Sep-20 23:00N 25°46' W 080°10'1 1.7
2017-Sep-20 22:30N 25°46' W 080°09'2 3.2
2017-Sep-20 21:59N 25°47' W 080°11'0 0.0
2017-Sep-20 21:29N 25°47' W 080°11'0 0.0
2017-Sep-20 20:59N 25°47' W 080°11'0 0.0
2017-Sep-20 20:29N 25°47' W 080°11'0 0.0
2017-Sep-20 19:59N 25°47' W 080°11'0 0.0
2017-Sep-20 19:29N 25°47' W 080°11'0 0.0
2017-Sep-20 18:59N 25°47' W 080°11'0 0.0
2017-Sep-20 18:30N 25°47' W 080°11'1 2.6
2017-Sep-20 18:00N 25°46' W 080°09'0 0.8
2017-Sep-20 17:26N 25°46' W 080°10'0 0.0
2017-Sep-20 16:56N 25°46' W 080°10'0 0.0
2017-Sep-20 16:29N 25°46' W 080°10'0 0.0
2017-Sep-20 15:56N 25°46' W 080°10'0 0.0
2017-Sep-20 15:29N 25°46' W 080°10'1 1.8
2017-Sep-20 15:00N 25°46' W 080°09'2 2.1
2017-Sep-20 13:59N 25°47' W 080°11'0 0.0
2017-Sep-20 13:29N 25°47' W 080°11'0 0.0
2017-Sep-20 12:59N 25°47' W 080°11'1 2.8
2017-Sep-20 12:30N 25°46' W 080°10'0 0.1
2017-Sep-20 11:59N 25°46' W 080°10'0 0.4
2017-Sep-20 11:29N 25°46' W 080°10'0 0.0
2017-Sep-20 10:59N 25°46' W 080°10'0 0.0
2017-Sep-20 10:29N 25°46' W 080°10'0 0.0
2017-Sep-20 09:59N 25°46' W 080°10'0 0.0
2017-Sep-20 09:29N 25°46' W 080°10'0 0.0
2017-Sep-20 08:59N 25°46' W 080°10'0 0.0
2017-Sep-20 08:29N 25°46' W 080°10'0 0.0
2017-Sep-20 07:59N 25°46' W 080°10'0 0.0
2017-Sep-20 07:29N 25°46' W 080°10'0 0.0
2017-Sep-20 06:59N 25°46' W 080°10'0 0.0
2017-Sep-20 06:29N 25°46' W 080°10'0 0.0
2017-Sep-20 05:59N 25°46' W 080°10'0 0.0
2017-Sep-20 05:29N 25°46' W 080°10'0 0.0
2017-Sep-20 04:59N 25°46' W 080°10'0 0.0
2017-Sep-20 04:29N 25°46' W 080°10'0 0.0
2017-Sep-20 03:59N 25°46' W 080°10'0 0.0
2017-Sep-20 03:29N 25°46' W 080°10'0 0.0
2017-Sep-20 02:59N 25°46' W 080°10'0 0.0
2017-Sep-20 02:26N 25°46' W 080°10'0 0.0
2017-Sep-20 01:59N 25°46' W 080°10'0 0.0
2017-Sep-20 01:29N 25°46' W 080°10'0 0.0
2017-Sep-20 00:56N 25°46' W 080°10'0 0.0
2017-Sep-20 00:29N 25°46' W 080°10'0 0.0
2017-Sep-19 23:59N 25°46' W 080°10'0 0.0
2017-Sep-19 23:26N 25°46' W 080°10'0 0.0
2017-Sep-19 22:56N 25°46' W 080°10'0 0.0
2017-Sep-19 22:29N 25°46' W 080°10'0 0.0
2017-Sep-19 21:59N 25°46' W 080°10'0 0.0
2017-Sep-19 21:29N 25°46' W 080°10'0 0.0
2017-Sep-19 20:59N 25°46' W 080°10'0 0.0
2017-Sep-19 20:29N 25°46' W 080°10'1 2.2
2017-Sep-19 19:54N 25°46' W 080°08'2 5.8
2017-Sep-19 19:30N 25°47' W 080°11'0 0.0
2017-Sep-19 19:00N 25°47' W 080°11'0 0.0
2017-Sep-19 18:27N 25°47' W 080°11'0 0.0
2017-Sep-19 18:00N 25°47' W 080°11'0 0.0
2017-Sep-19 17:27N 25°47' W 080°11'0 0.0
2017-Sep-19 16:57N 25°47' W 080°11'0 0.0
2017-Sep-19 16:30N 25°47' W 080°11'0 0.0
2017-Sep-19 16:00N 25°47' W 080°11'0 0.0
2017-Sep-19 15:30N 25°47' W 080°11'0 0.0
2017-Sep-19 15:00N 25°47' W 080°11'0 0.0
2017-Sep-19 14:30N 25°47' W 080°11'0 0.0
2017-Sep-19 14:00N 25°47' W 080°11'0 0.9
2017-Sep-19 13:31N 25°47' W 080°10'2 3.5
2017-Sep-19 13:00N 25°46' W 080°09'0 0.0
2017-Sep-19 12:30N 25°46' W 080°09'0 0.0
2017-Sep-19 11:57N 25°46' W 080°09'0 0.0
2017-Sep-19 11:30N 25°46' W 080°09'0 0.0
2017-Sep-19 11:00N 25°46' W 080°09'0 0.0
2017-Sep-19 10:30N 25°46' W 080°09'0 0.0
2017-Sep-19 10:00N 25°46' W 080°09'0 0.0
2017-Sep-19 09:30N 25°46' W 080°09'0 0.0
2017-Sep-19 09:00N 25°46' W 080°09'0 0.0
2017-Sep-19 08:27N 25°46' W 080°09'0 0.0
2017-Sep-19 07:56N 25°46' W 080°09'0 0.0
2017-Sep-19 07:26N 25°46' W 080°09'0 0.0
2017-Sep-19 06:56N 25°46' W 080°09'0 0.0
2017-Sep-19 06:29N 25°46' W 080°09'0 0.0
2017-Sep-19 05:56N 25°46' W 080°09'0 0.0
2017-Sep-19 05:26N 25°46' W 080°09'0 0.0
2017-Sep-19 04:59N 25°46' W 080°09'0 0.0
2017-Sep-19 04:26N 25°46' W 080°09'0 0.0
2017-Sep-19 03:53N 25°46' W 080°09'0 0.0
2017-Sep-19 03:26N 25°46' W 080°09'0 0.0
2017-Sep-19 02:53N 25°46' W 080°09'0 0.0
2017-Sep-19 02:23N 25°46' W 080°09'0 0.0
2017-Sep-19 01:59N 25°46' W 080°09'0 0.0
2017-Sep-19 01:29N 25°46' W 080°09'0 0.0
2017-Sep-19 00:59N 25°46' W 080°09'0 0.0
2017-Sep-19 00:29N 25°46' W 080°09'0 0.0
2017-Sep-18 23:59N 25°46' W 080°09'0 0.0
2017-Sep-18 23:26N 25°46' W 080°09'0 0.0
2017-Sep-18 22:59N 25°46' W 080°09'0 0.0
2017-Sep-18 22:26N 25°46' W 080°09'0 0.0
2017-Sep-18 21:59N 25°46' W 080°09'0 0.0
2017-Sep-18 21:23N 25°46' W 080°09'0 0.0
2017-Sep-18 20:59N 25°46' W 080°09'0 0.0
2017-Sep-18 20:29N 25°46' W 080°09'0 0.3
2017-Sep-18 19:58N 25°46' W 080°08'1 2.1
2017-Sep-18 19:22N 25°46' W 080°10'1 2.9
2017-Sep-18 18:58N 25°46' W 080°09'0 0.0
2017-Sep-18 18:28N 25°46' W 080°09'0 0.0
2017-Sep-18 17:58N 25°46' W 080°09'1 2.3
2017-Sep-18 17:27N 25°46' W 080°10'0 0.0
2017-Sep-18 16:56N 25°46' W 080°10'0 0.0
2017-Sep-18 16:23N 25°46' W 080°10'0 0.0
2017-Sep-18 15:56N 25°46' W 080°10'0 0.0
2017-Sep-18 15:29N 25°46' W 080°10'0 0.0
2017-Sep-18 14:59N 25°46' W 080°10'0 0.0
2017-Sep-18 14:29N 25°46' W 080°10'0 0.0
2017-Sep-18 13:59N 25°46' W 080°10'0 0.0
2017-Sep-18 13:29N 25°46' W 080°10'0 0.0
2017-Sep-18 12:59N 25°46' W 080°10'0 0.0
2017-Sep-18 12:29N 25°46' W 080°10'0 0.0
2017-Sep-18 11:59N 25°46' W 080°10'0 0.0
2017-Sep-18 11:29N 25°46' W 080°10'0 0.0
2017-Sep-18 10:59N 25°46' W 080°10'0 0.0
2017-Sep-18 10:29N 25°46' W 080°10'0 0.0
2017-Sep-18 09:59N 25°46' W 080°10'0 0.0
2017-Sep-18 09:29N 25°46' W 080°10'0 0.0
2017-Sep-18 08:59N 25°46' W 080°10'0 0.0
2017-Sep-18 08:29N 25°46' W 080°10'0 0.0
2017-Sep-18 07:59N 25°46' W 080°10'0 0.0
2017-Sep-18 07:29N 25°46' W 080°10'0 0.0
2017-Sep-18 06:59N 25°46' W 080°10'0 0.0
2017-Sep-18 06:29N 25°46' W 080°10'0 0.0
2017-Sep-18 05:59N 25°46' W 080°10'0 0.0
2017-Sep-18 05:29N 25°46' W 080°10'0 0.0
2017-Sep-18 04:59N 25°46' W 080°10'0 0.0
2017-Sep-18 04:29N 25°46' W 080°10'0 0.0
2017-Sep-18 03:59N 25°46' W 080°10'0 0.0
2017-Sep-18 03:29N 25°46' W 080°10'0 0.0
2017-Sep-18 02:59N 25°46' W 080°10'0 0.0
2017-Sep-18 02:29N 25°46' W 080°10'0 0.0
2017-Sep-18 01:59N 25°46' W 080°10'0 0.0
2017-Sep-18 01:29N 25°46' W 080°10'0 0.0
2017-Sep-18 00:59N 25°46' W 080°10'0 0.0
2017-Sep-18 00:29N 25°46' W 080°10'0 0.0
2017-Sep-17 23:59N 25°46' W 080°10'0 0.0
2017-Sep-17 23:29N 25°46' W 080°10'0 0.0
2017-Sep-17 22:56N 25°46' W 080°10'0 0.0
2017-Sep-17 22:29N 25°46' W 080°10'0 0.0
2017-Sep-17 21:56N 25°46' W 080°10'0 0.0
2017-Sep-17 21:29N 25°46' W 080°10'0 0.0
2017-Sep-17 20:56N 25°46' W 080°10'0 0.0
2017-Sep-17 20:29N 25°46' W 080°10'0 0.0
2017-Sep-17 19:58N 25°46' W 080°10'0 0.0
2017-Sep-17 19:28N 25°46' W 080°10'0 0.0
2017-Sep-17 18:58N 25°46' W 080°10'0 0.0
2017-Sep-17 18:28N 25°46' W 080°10'0 0.0
2017-Sep-17 17:58N 25°46' W 080°10'0 0.0
2017-Sep-17 17:28N 25°46' W 080°10'0 0.0
2017-Sep-17 17:00N 25°46' W 080°10'0 0.0
2017-Sep-17 16:30N 25°46' W 080°10'0 0.8
2017-Sep-17 16:00N 25°47' W 080°10'0 0.0
2017-Sep-17 15:30N 25°47' W 080°10'0 0.0
2017-Sep-17 15:00N 25°47' W 080°10'0 0.0
2017-Sep-17 14:30N 25°47' W 080°10'0 0.0
2017-Sep-17 14:00N 25°47' W 080°10'0 0.0
2017-Sep-17 13:30N 25°47' W 080°10'0 0.0
2017-Sep-17 13:00N 25°47' W 080°10'0 0.0
2017-Sep-17 12:30N 25°47' W 080°10'0 0.0
2017-Sep-17 12:00N 25°47' W 080°10'0 0.9
2017-Sep-17 11:30N 25°46' W 080°10'0 0.0
2017-Sep-17 11:00N 25°46' W 080°10'0 0.0
2017-Sep-17 10:30N 25°46' W 080°10'0 0.0
2017-Sep-17 10:00N 25°46' W 080°10'0 0.0
2017-Sep-17 09:30N 25°46' W 080°10'0 0.0
2017-Sep-17 09:00N 25°46' W 080°10'0 0.0
2017-Sep-17 08:30N 25°46' W 080°10'0 0.0
2017-Sep-17 08:00N 25°46' W 080°10'0 0.0
2017-Sep-17 07:30N 25°46' W 080°10'0 0.0
2017-Sep-17 07:00N 25°46' W 080°10'0 0.0
2017-Sep-17 06:30N 25°46' W 080°10'0 0.0
2017-Sep-17 06:00N 25°46' W 080°10'0 0.0
2017-Sep-17 05:30N 25°46' W 080°10'0 0.0
2017-Sep-17 05:00N 25°46' W 080°10'0 0.0
2017-Sep-17 04:30N 25°46' W 080°10'0 0.0
2017-Sep-17 04:00N 25°46' W 080°10'0 0.0
2017-Sep-17 03:30N 25°46' W 080°10'0 0.0
2017-Sep-17 03:00N 25°46' W 080°10'0 0.0
2017-Sep-17 02:30N 25°46' W 080°10'0 0.0
2017-Sep-17 02:00N 25°46' W 080°10'0 0.0
2017-Sep-17 01:30N 25°46' W 080°10'0 0.0
2017-Sep-17 01:00N 25°46' W 080°10'0 0.0
2017-Sep-17 00:30N 25°46' W 080°10'0 0.0
2017-Sep-17 00:00N 25°46' W 080°10'0 0.0
2017-Sep-16 23:30N 25°46' W 080°10'0 0.0
2017-Sep-16 23:00N 25°46' W 080°10'0 0.0
2017-Sep-16 22:30N 25°46' W 080°10'0 0.0
2017-Sep-16 22:00N 25°46' W 080°10'0 0.0
2017-Sep-16 21:30N 25°46' W 080°10'0 0.0
2017-Sep-16 21:00N 25°46' W 080°10'0 0.0
2017-Sep-16 20:30N 25°46' W 080°10'0 0.0
2017-Sep-16 20:00N 25°46' W 080°10'0 0.0
2017-Sep-16 19:30N 25°46' W 080°10'0 0.0
2017-Sep-16 19:00N 25°46' W 080°10'0 0.0
2017-Sep-16 18:30N 25°46' W 080°10'0 0.0
2017-Sep-16 18:00N 25°46' W 080°10'0 0.9
2017-Sep-16 17:30N 25°47' W 080°10'0 0.0
2017-Sep-16 17:00N 25°47' W 080°10'0 0.0
2017-Sep-16 16:30N 25°47' W 080°10'0 0.5
2017-Sep-16 16:00N 25°47' W 080°10'0 0.6
2017-Sep-16 15:30N 25°47' W 080°11'0 1.0
2017-Sep-16 15:01N 25°47' W 080°10'0 0.1
2017-Sep-16 14:30N 25°47' W 080°10'0 0.0
2017-Sep-16 14:00N 25°47' W 080°10'0 0.0
2017-Sep-16 13:30N 25°47' W 080°10'0 0.0
2017-Sep-16 13:00N 25°47' W 080°10'0 0.0
2017-Sep-16 12:30N 25°47' W 080°10'0 0.0
2017-Sep-16 12:00N 25°47' W 080°10'0 0.1
2017-Sep-16 11:30N 25°47' W 080°10'1 1.0
2017-Sep-16 11:00N 25°47' W 080°11'1 2.1
2017-Sep-16 10:30N 25°46' W 080°10'0 0.0
2017-Sep-16 09:58N 25°46' W 080°10'0 0.0
2017-Sep-16 09:28N 25°46' W 080°10'0 0.0
2017-Sep-16 08:58N 25°46' W 080°10'0 0.0
2017-Sep-16 08:28N 25°46' W 080°10'0 0.0
2017-Sep-16 07:58N 25°46' W 080°10'0 0.0
2017-Sep-16 07:28N 25°46' W 080°10'0 0.0
2017-Sep-16 06:58N 25°46' W 080°10'0 0.0
2017-Sep-16 06:28N 25°46' W 080°10'0 0.0
2017-Sep-16 05:58N 25°46' W 080°10'0 0.0
2017-Sep-16 05:28N 25°46' W 080°10'0 0.0
2017-Sep-16 04:58N 25°46' W 080°10'0 0.0
2017-Sep-16 04:28N 25°46' W 080°10'0 0.0
2017-Sep-16 03:55N 25°46' W 080°10'0 0.0
2017-Sep-16 03:28N 25°46' W 080°10'0 0.0
2017-Sep-16 02:58N 25°46' W 080°10'0 0.0
2017-Sep-16 02:28N 25°46' W 080°10'0 0.0
2017-Sep-16 01:58N 25°46' W 080°10'0 0.0
2017-Sep-16 01:28N 25°46' W 080°10'0 0.0
2017-Sep-16 00:58N 25°46' W 080°10'0 0.0
2017-Sep-16 00:28N 25°46' W 080°10'0 0.0
2017-Sep-15 23:58N 25°46' W 080°10'0 0.0
2017-Sep-15 23:28N 25°46' W 080°10'0 0.0
2017-Sep-15 22:58N 25°46' W 080°10'0 0.0
2017-Sep-15 22:28N 25°46' W 080°10'0 0.1
2017-Sep-15 21:58N 25°46' W 080°10'0 0.1
2017-Sep-15 21:30N 25°46' W 080°10'0 0.2
2017-Sep-15 21:00N 25°46' W 080°10'0 0.0
2017-Sep-15 20:30N 25°46' W 080°10'0 0.0
2017-Sep-15 20:00N 25°46' W 080°10'1 2.0
2017-Sep-15 19:30N 25°46' W 080°09'1 1.2
2017-Sep-15 19:00N 25°46' W 080°10'1 1.3
2017-Sep-15 18:30N 25°47' W 080°10'0 0.0
2017-Sep-15 18:00N 25°47' W 080°10'0 0.0
2017-Sep-15 17:30N 25°47' W 080°10'0 0.3
2017-Sep-15 17:00N 25°46' W 080°10'1 2.6
2017-Sep-15 16:30N 25°46' W 080°08'1 2.3
2017-Sep-15 15:57N 25°46' W 080°10'0 0.0
2017-Sep-15 15:30N 25°46' W 080°10'0 0.0
2017-Sep-15 15:00N 25°46' W 080°10'0 0.0
2017-Sep-15 14:27N 25°46' W 080°10'0 0.4
2017-Sep-15 13:59N 25°47' W 080°10'0 0.0
2017-Sep-15 13:29N 25°47' W 080°10'0 0.0
2017-Sep-15 12:59N 25°47' W 080°10'0 0.0
2017-Sep-15 12:29N 25°47' W 080°10'0 0.0
2017-Sep-15 11:59N 25°47' W 080°10'0 0.2
2017-Sep-15 11:25N 25°46' W 080°10'0 0.0
2017-Sep-15 10:58N 25°46' W 080°10'0 0.0
2017-Sep-15 10:28N 25°46' W 080°10'0 0.0
2017-Sep-15 09:58N 25°46' W 080°10'0 0.0
2017-Sep-15 09:28N 25°46' W 080°10'0 0.0
2017-Sep-15 08:58N 25°46' W 080°10'0 0.0
2017-Sep-15 08:28N 25°46' W 080°10'0 0.0
2017-Sep-15 07:58N 25°46' W 080°10'0 0.0
2017-Sep-15 07:28N 25°46' W 080°10'0 0.0
2017-Sep-15 06:58N 25°46' W 080°10'0 0.0
2017-Sep-15 06:28N 25°46' W 080°10'0 0.0
2017-Sep-15 05:58N 25°46' W 080°10'0 0.0
2017-Sep-15 05:28N 25°46' W 080°10'0 0.0
2017-Sep-15 04:58N 25°46' W 080°10'0 0.0
2017-Sep-15 04:28N 25°46' W 080°10'0 0.0
2017-Sep-15 03:58N 25°46' W 080°10'0 0.0
2017-Sep-15 03:28N 25°46' W 080°10'0 0.0
2017-Sep-15 02:58N 25°46' W 080°10'0 0.0
2017-Sep-15 02:28N 25°46' W 080°10'0 0.0
2017-Sep-15 01:58N 25°46' W 080°10'0 0.0
2017-Sep-15 01:28N 25°46' W 080°10'0 0.0
2017-Sep-15 00:58N 25°46' W 080°10'0 0.0
2017-Sep-15 00:25N 25°46' W 080°10'0 0.0
2017-Sep-14 23:58N 25°46' W 080°10'0 0.0
2017-Sep-14 23:28N 25°46' W 080°10'1 2.7
2017-Sep-14 23:00N 25°46' W 080°08'1 2.7
2017-Sep-14 22:31N 25°46' W 080°10'0 0.0
2017-Sep-14 22:01N 25°46' W 080°10'1 1.8
2017-Sep-14 21:31N 25°46' W 080°09'1 2.7
2017-Sep-14 21:01N 25°46' W 080°10'0 0.7
2017-Sep-14 20:30N 25°46' W 080°11'1 1.7
2017-Sep-14 20:00N 25°46' W 080°10'0 0.0
2017-Sep-14 19:30N 25°46' W 080°10'0 0.0
2017-Sep-14 19:00N 25°46' W 080°10'0 0.0
2017-Sep-14 18:30N 25°46' W 080°10'0 0.0
2017-Sep-14 18:00N 25°46' W 080°10'0 0.0
2017-Sep-14 17:24N 25°46' W 080°10'0 0.0
2017-Sep-14 17:00N 25°46' W 080°10'0 0.0
2017-Sep-14 16:30N 25°46' W 080°10'0 0.0
2017-Sep-14 16:00N 25°46' W 080°10'0 0.0
2017-Sep-14 15:30N 25°46' W 080°10'0 0.7
2017-Sep-14 15:01N 25°47' W 080°10'0 0.8
2017-Sep-14 14:26N 25°47' W 080°10'0 0.0
2017-Sep-14 13:59N 25°47' W 080°10'0 0.0
2017-Sep-14 13:29N 25°47' W 080°10'0 0.0
2017-Sep-14 12:59N 25°47' W 080°10'0 0.0
2017-Sep-14 12:29N 25°47' W 080°10'0 0.0
2017-Sep-14 11:59N 25°47' W 080°10'0 0.0
2017-Sep-14 11:29N 25°47' W 080°10'0 0.0
2017-Sep-14 10:59N 25°47' W 080°10'1 1.5
2017-Sep-14 10:30N 25°46' W 080°10'0 0.0
2017-Sep-14 10:00N 25°46' W 080°10'0 0.0
2017-Sep-14 09:30N 25°46' W 080°10'0 0.0
2017-Sep-14 09:00N 25°46' W 080°10'0 0.0
2017-Sep-14 08:27N 25°46' W 080°10'0 0.0
2017-Sep-14 07:54N 25°46' W 080°10'0 0.0
2017-Sep-14 07:27N 25°46' W 080°10'0 0.0
2017-Sep-14 07:00N 25°46' W 080°10'0 0.0
2017-Sep-14 06:30N 25°46' W 080°10'0 0.0
2017-Sep-14 06:00N 25°46' W 080°10'0 0.0
2017-Sep-14 05:30N 25°46' W 080°10'0 0.0
2017-Sep-14 05:00N 25°46' W 080°10'0 0.0
2017-Sep-14 04:30N 25°46' W 080°10'0 0.0
2017-Sep-14 03:57N 25°46' W 080°10'1 1.2
2017-Sep-14 03:30N 25°46' W 080°10'1 1.4
2017-Sep-14 03:00N 25°46' W 080°10'0 0.0
2017-Sep-14 02:30N 25°46' W 080°10'0 0.0
2017-Sep-14 02:00N 25°46' W 080°10'0 0.0
2017-Sep-14 01:30N 25°46' W 080°10'0 0.0
2017-Sep-14 01:00N 25°46' W 080°10'0 0.0
2017-Sep-14 00:30N 25°46' W 080°10'0 0.0
2017-Sep-14 00:00N 25°46' W 080°10'0 0.0
2017-Sep-13 23:30N 25°46' W 080°10'0 0.0
2017-Sep-13 23:00N 25°46' W 080°10'0 0.0
2017-Sep-13 22:30N 25°46' W 080°10'0 0.8
2017-Sep-13 21:58N 25°46' W 080°10'0 0.0
2017-Sep-13 21:28N 25°46' W 080°10'0 0.1
2017-Sep-13 20:58N 25°46' W 080°10'0 0.9
2017-Sep-13 20:29N 25°46' W 080°10'0 0.0
2017-Sep-13 19:59N 25°46' W 080°10'0 0.0
2017-Sep-13 19:29N 25°46' W 080°10'0 0.0
2017-Sep-13 18:53N 25°46' W 080°10'0 0.0
2017-Sep-13 18:29N 25°46' W 080°10'0 0.0
2017-Sep-13 17:59N 25°46' W 080°10'0 0.0
2017-Sep-13 17:29N 25°46' W 080°10'0 0.0
2017-Sep-13 16:59N 25°46' W 080°10'0 0.0
2017-Sep-13 16:29N 25°46' W 080°10'0 0.8
2017-Sep-13 15:57N 25°46' W 080°10'0 0.0
2017-Sep-13 15:30N 25°46' W 080°10'0 0.0
2017-Sep-13 15:00N 25°46' W 080°10'0 0.0
2017-Sep-13 14:30N 25°46' W 080°10'0 0.0
2017-Sep-13 14:00N 25°46' W 080°10'1 1.7
2017-Sep-13 13:29N 25°46' W 080°09'2 3.6
2017-Sep-13 13:00N 25°47' W 080°11'0 0.0
2017-Sep-13 12:30N 25°47' W 080°11'0 0.0
2017-Sep-13 12:00N 25°47' W 080°11'0 0.2
2017-Sep-13 11:30N 25°47' W 080°11'0 0.0
2017-Sep-13 11:00N 25°47' W 080°11'0 0.0
2017-Sep-13 10:29N 25°47' W 080°11'0 0.0
2017-Sep-13 09:59N 25°47' W 080°11'0 0.0
2017-Sep-13 09:29N 25°47' W 080°11'0 0.0
2017-Sep-13 08:59N 25°47' W 080°11'0 0.0
2017-Sep-13 08:29N 25°47' W 080°11'0 0.0
2017-Sep-13 07:59N 25°47' W 080°11'0 0.0
2017-Sep-13 07:29N 25°47' W 080°11'0 0.0
2017-Sep-13 06:59N 25°47' W 080°11'0 0.0
2017-Sep-13 06:29N 25°47' W 080°11'1 1.3
2017-Sep-13 05:58N 25°47' W 080°10'0 0.0
2017-Sep-13 05:28N 25°47' W 080°10'0 0.0
2017-Sep-13 04:58N 25°47' W 080°10'0 0.0
2017-Sep-13 04:28N 25°47' W 080°10'0 0.0
2017-Sep-13 03:55N 25°47' W 080°10'0 0.0
2017-Sep-13 03:28N 25°47' W 080°10'0 0.0
2017-Sep-13 02:58N 25°47' W 080°10'0 0.0
2017-Sep-13 02:28N 25°47' W 080°10'0 0.0
2017-Sep-13 01:58N 25°47' W 080°10'0 0.0
2017-Sep-13 01:28N 25°47' W 080°10'0 0.1
2017-Sep-13 00:54N 25°47' W 080°10'1 3.2
2017-Sep-13 00:26N 25°46' W 080°08'0 0.0
2017-Sep-12 23:59N 25°46' W 080°08'0 0.2
2017-Sep-12 23:27N 25°46' W 080°08'3 5.6
2017-Sep-12 22:58N 25°46' W 080°05'0 0.2
2017-Sep-12 22:30N 25°46' W 080°05'0 0.8
2017-Sep-12 21:57N 25°46' W 080°06'3 5.2
2017-Sep-12 21:28N 25°46' W 080°09'0 0.0
2017-Sep-12 20:58N 25°46' W 080°09'0 0.0
2017-Sep-12 20:28N 25°46' W 080°09'0 0.0
2017-Sep-12 19:58N 25°46' W 080°09'0 0.0
2017-Sep-12 19:28N 25°46' W 080°09'1 1.2
2017-Sep-12 19:00N 25°46' W 080°09'1 1.4
2017-Sep-12 18:29N 25°46' W 080°10'0 0.3
2017-Sep-12 18:00N 25°47' W 080°10'1 2.2
2017-Sep-12 17:30N 25°46' W 080°09'1 2.9
2017-Sep-12 17:00N 25°47' W 080°10'0 0.0
2017-Sep-12 16:28N 25°47' W 080°10'0 0.7
2017-Sep-12 16:00N 25°47' W 080°11'0 0.0
2017-Sep-12 15:30N 25°47' W 080°11'0 0.0
2017-Sep-12 15:00N 25°47' W 080°11'0 0.0
2017-Sep-12 14:30N 25°47' W 080°11'0 0.0
2017-Sep-12 13:57N 25°47' W 080°11'0 0.0
2017-Sep-12 13:30N 25°47' W 080°11'0 0.0
2017-Sep-12 12:57N 25°47' W 080°11'0 0.0
2017-Sep-12 12:30N 25°47' W 080°11'0 0.0
2017-Sep-12 11:59N 25°47' W 080°11'0 0.0
2017-Sep-12 11:29N 25°47' W 080°11'0 0.0
2017-Sep-12 11:00N 25°47' W 080°11'0 0.7
2017-Sep-12 10:29N 25°47' W 080°10'0 0.0
2017-Sep-12 09:59N 25°47' W 080°10'0 0.0
2017-Sep-12 09:29N 25°47' W 080°10'0 0.0
2017-Sep-12 08:59N 25°47' W 080°10'0 0.0
2017-Sep-12 08:29N 25°47' W 080°10'0 0.0
2017-Sep-12 07:56N 25°47' W 080°10'0 0.0
2017-Sep-12 07:29N 25°47' W 080°10'0 0.0
2017-Sep-12 06:59N 25°47' W 080°10'0 0.0
2017-Sep-12 06:29N 25°47' W 080°10'0 0.0
2017-Sep-12 05:53N 25°47' W 080°10'0 0.0
2017-Sep-12 05:29N 25°47' W 080°10'0 0.0
2017-Sep-12 04:59N 25°47' W 080°10'0 0.0
2017-Sep-12 04:26N 25°47' W 080°10'0 0.0
2017-Sep-12 03:56N 25°47' W 080°10'0 0.0
2017-Sep-12 03:29N 25°47' W 080°10'0 0.0
2017-Sep-12 02:59N 25°47' W 080°10'0 0.0
2017-Sep-12 02:29N 25°47' W 080°10'  

Dump ship's entire track history